sensor_id;sensor_type;location;lat;lon;timestamp;pressure;altitude;pressure_sealevel;temperature
32827;BMP280;51059;42.058;27.986;2024-03-02T00:00:22;77650.00;;;-131.54
32827;BMP280;51059;42.058;27.986;2024-03-02T00:02:50;77650.00;;;-131.54
32827;BMP280;51059;42.058;27.986;2024-03-02T00:05:20;77710.06;;;-131.54
32827;BMP280;51059;42.058;27.986;2024-03-02T00:10:23;77663.56;;;-131.54
32827;BMP280;51059;42.058;27.986;2024-03-02T00:12:55;77663.56;;;-131.54
32827;BMP280;51059;42.058;27.986;2024-03-02T00:16:02;77642.25;;;-131.54
32827;BMP280;51059;42.058;27.986;2024-03-02T00:18:35;77640.31;;;-131.54
32827;BMP280;51059;42.058;27.986;2024-03-02T00:21:01;77642.25;;;-131.54
32827;BMP280;51059;42.058;27.986;2024-03-02T00:23:31;77644.19;;;-131.54
32827;BMP280;51059;42.058;27.986;2024-03-02T00:25:58;77648.06;;;-131.54
32827;BMP280;51059;42.058;27.986;2024-03-02T00:28:32;77642.25;;;-131.54
32827;BMP280;51059;42.058;27.986;2024-03-02T00:33:47;77630.63;;;-131.54
32827;BMP280;51059;42.058;27.986;2024-03-02T00:36:15;77655.81;;;-131.54
32827;BMP280;51059;42.058;27.986;2024-03-02T00:38:49;77690.69;;;-131.54
32827;BMP280;51059;42.058;27.986;2024-03-02T00:41:20;77651.94;;;-131.54
32827;BMP280;51059;42.058;27.986;2024-03-02T00:46:23;77659.69;;;-131.54
32827;BMP280;51059;42.058;27.986;2024-03-02T00:48:57;77651.94;;;-131.54
32827;BMP280;51059;42.058;27.986;2024-03-02T00:51:25;77640.31;;;-131.54
32827;BMP280;51059;42.058;27.986;2024-03-02T00:53:53;77640.31;;;-131.54
32827;BMP280;51059;42.058;27.986;2024-03-02T00:56:23;77628.69;;;-131.54
32827;BMP280;51059;42.058;27.986;2024-03-02T00:58:49;77613.16;;;-131.54
32827;BMP280;51059;42.058;27.986;2024-03-02T01:01:15;77624.81;;;-131.54
32827;BMP280;51059;42.058;27.986;2024-03-02T01:03:43;77622.88;;;-131.54
32827;BMP280;51059;42.058;27.986;2024-03-02T01:06:09;77620.94;;;-131.54
32827;BMP280;51059;42.058;27.986;2024-03-02T01:08:36;77659.69;;;-131.54
32827;BMP280;51059;42.058;27.986;2024-03-02T01:11:03;77655.81;;;-131.54
32827;BMP280;51059;42.058;27.986;2024-03-02T01:13:29;77638.38;;;-131.54
32827;BMP280;51059;42.058;27.986;2024-03-02T01:15:55;77624.81;;;-131.54
32827;BMP280;51059;42.058;27.986;2024-03-02T01:18:21;77620.94;;;-131.54
32827;BMP280;51059;42.058;27.986;2024-03-02T01:20:49;77613.16;;;-131.54
32827;BMP280;51059;42.058;27.986;2024-03-02T01:23:18;77609.28;;;-131.54
32827;BMP280;51059;42.058;27.986;2024-03-02T01:25:46;77617.03;;;-131.54
32827;BMP280;51059;42.058;27.986;2024-03-02T01:28:12;77613.16;;;-131.54
32827;BMP280;51059;42.058;27.986;2024-03-02T01:30:38;77609.28;;;-131.54
32827;BMP280;51059;42.058;27.986;2024-03-02T01:33:04;77603.47;;;-131.54
32827;BMP280;51059;42.058;27.986;2024-03-02T01:35:31;77613.16;;;-131.54
32827;BMP280;51059;42.058;27.986;2024-03-02T01:37:57;77607.34;;;-131.54
32827;BMP280;51059;42.058;27.986;2024-03-02T01:40:23;77617.03;;;-131.54
32827;BMP280;51059;42.058;27.986;2024-03-02T01:42:54;77628.69;;;-131.54
32827;BMP280;51059;42.058;27.986;2024-03-02T01:45:21;77615.13;;;-131.54
32827;BMP280;51059;42.058;27.986;2024-03-02T01:47:47;77613.16;;;-131.54
32827;BMP280;51059;42.058;27.986;2024-03-02T01:50:13;77615.13;;;-131.54
32827;BMP280;51059;42.058;27.986;2024-03-02T01:52:40;77613.16;;;-131.54
32827;BMP280;51059;42.058;27.986;2024-03-02T01:55:07;77605.41;;;-131.54
32827;BMP280;51059;42.058;27.986;2024-03-02T01:57:34;77597.66;;;-131.54
32827;BMP280;51059;42.058;27.986;2024-03-02T02:00:00;77597.66;;;-131.54
32827;BMP280;51059;42.058;27.986;2024-03-02T02:02:26;77605.41;;;-131.54
32827;BMP280;51059;42.058;27.986;2024-03-02T02:04:52;77609.28;;;-131.54
32827;BMP280;51059;42.058;27.986;2024-03-02T02:07:18;77607.34;;;-131.54
32827;BMP280;51059;42.058;27.986;2024-03-02T02:09:44;77607.34;;;-131.54
32827;BMP280;51059;42.058;27.986;2024-03-02T02:12:10;77613.16;;;-131.54
32827;BMP280;51059;42.058;27.986;2024-03-02T02:14:36;77655.81;;;-131.54
32827;BMP280;51059;42.058;27.986;2024-03-02T02:17:03;77615.13;;;-131.54
32827;BMP280;51059;42.058;27.986;2024-03-02T02:19:29;77613.16;;;-131.54
32827;BMP280;51059;42.058;27.986;2024-03-02T02:21:55;77622.88;;;-131.54
32827;BMP280;51059;42.058;27.986;2024-03-02T02:24:21;77622.88;;;-131.54
32827;BMP280;51059;42.058;27.986;2024-03-02T02:26:47;77619.00;;;-131.54
32827;BMP280;51059;42.058;27.986;2024-03-02T02:29:14;77622.88;;;-131.54
32827;BMP280;51059;42.058;27.986;2024-03-02T02:31:40;77622.88;;;-131.54
32827;BMP280;51059;42.058;27.986;2024-03-02T02:34:07;77624.81;;;-131.54
32827;BMP280;51059;42.058;27.986;2024-03-02T02:36:33;77624.81;;;-131.54
32827;BMP280;51059;42.058;27.986;2024-03-02T02:39:05;77617.03;;;-131.54
32827;BMP280;51059;42.058;27.986;2024-03-02T02:41:32;77611.22;;;-131.54
32827;BMP280;51059;42.058;27.986;2024-03-02T02:43:58;77620.94;;;-131.54
32827;BMP280;51059;42.058;27.986;2024-03-02T02:46:24;77675.19;;;-131.54
32827;BMP280;51059;42.058;27.986;2024-03-02T02:48:50;77638.38;;;-131.54
32827;BMP280;51059;42.058;27.986;2024-03-02T02:51:18;77636.44;;;-131.54
32827;BMP280;51059;42.058;27.986;2024-03-02T02:53:44;77632.56;;;-131.54
32827;BMP280;51059;42.058;27.986;2024-03-02T02:56:10;77632.56;;;-131.54
32827;BMP280;51059;42.058;27.986;2024-03-02T02:58:36;77640.31;;;-131.54
32827;BMP280;51059;42.058;27.986;2024-03-02T03:01:02;77636.44;;;-131.54
32827;BMP280;51059;42.058;27.986;2024-03-02T03:03:29;77640.31;;;-131.54
32827;BMP280;51059;42.058;27.986;2024-03-02T03:05:56;77636.44;;;-131.54
32827;BMP280;51059;42.058;27.986;2024-03-02T03:08:22;77634.50;;;-131.54
32827;BMP280;51059;42.058;27.986;2024-03-02T03:10:49;77636.44;;;-131.54
32827;BMP280;51059;42.058;27.986;2024-03-02T03:13:15;77636.44;;;-131.54
32827;BMP280;51059;42.058;27.986;2024-03-02T03:15:41;77638.38;;;-131.54
32827;BMP280;51059;42.058;27.986;2024-03-02T03:18:07;77692.63;;;-131.54
32827;BMP280;51059;42.058;27.986;2024-03-02T03:20:39;77644.19;;;-131.54
32827;BMP280;51059;42.058;27.986;2024-03-02T03:23:04;77628.69;;;-131.54
32827;BMP280;51059;42.058;27.986;2024-03-02T03:25:30;77632.56;;;-131.54
32827;BMP280;51059;42.058;27.986;2024-03-02T03:27:56;77628.69;;;-131.54
32827;BMP280;51059;42.058;27.986;2024-03-02T03:30:23;77624.81;;;-131.54
32827;BMP280;51059;42.058;27.986;2024-03-02T03:32:49;77617.03;;;-131.54
32827;BMP280;51059;42.058;27.986;2024-03-02T03:35:15;77620.94;;;-131.54
32827;BMP280;51059;42.058;27.986;2024-03-02T03:37:41;77615.13;;;-131.54
32827;BMP280;51059;42.058;27.986;2024-03-02T03:40:07;77622.88;;;-131.54
32827;BMP280;51059;42.058;27.986;2024-03-02T03:42:36;77613.16;;;-131.54
32827;BMP280;51059;42.058;27.986;2024-03-02T03:45:03;77617.03;;;-131.54
32827;BMP280;51059;42.058;27.986;2024-03-02T03:47:31;77617.03;;;-131.54
32827;BMP280;51059;42.058;27.986;2024-03-02T03:49:57;77694.56;;;-131.54
32827;BMP280;51059;42.058;27.986;2024-03-02T03:52:23;77624.81;;;-131.54
32827;BMP280;51059;42.058;27.986;2024-03-02T03:54:49;77607.34;;;-131.54
32827;BMP280;51059;42.058;27.986;2024-03-02T03:57:15;77607.34;;;-131.54
32827;BMP280;51059;42.058;27.986;2024-03-02T03:59:42;77599.59;;;-131.54
32827;BMP280;51059;42.058;27.986;2024-03-02T04:02:09;77605.41;;;-131.54
32827;BMP280;51059;42.058;27.986;2024-03-02T04:04:35;77593.78;;;-131.54
32827;BMP280;51059;42.058;27.986;2024-03-02T04:07:01;77605.41;;;-131.54
32827;BMP280;51059;42.058;27.986;2024-03-02T04:09:27;77605.41;;;-131.54
32827;BMP280;51059;42.058;27.986;2024-03-02T04:11:53;77609.28;;;-131.54
32827;BMP280;51059;42.058;27.986;2024-03-02T04:14:19;77609.28;;;-131.54
32827;BMP280;51059;42.058;27.986;2024-03-02T04:16:46;77605.41;;;-131.54
32827;BMP280;51059;42.058;27.986;2024-03-02T04:19:12;77601.53;;;-131.54
32827;BMP280;51059;42.058;27.986;2024-03-02T04:21:38;77665.50;;;-131.54
32827;BMP280;51059;42.058;27.986;2024-03-02T04:24:04;77620.94;;;-131.54
32827;BMP280;51059;42.058;27.986;2024-03-02T04:26:30;77601.53;;;-131.54
32827;BMP280;51059;42.058;27.986;2024-03-02T04:28:56;77593.78;;;-131.54
32827;BMP280;51059;42.058;27.986;2024-03-02T04:31:22;77597.66;;;-131.54
32827;BMP280;51059;42.058;27.986;2024-03-02T04:33:47;77593.78;;;-131.54
32827;BMP280;51059;42.058;27.986;2024-03-02T04:36:13;77586.03;;;-131.54
32827;BMP280;51059;42.058;27.986;2024-03-02T04:38:40;77591.84;;;-131.54
32827;BMP280;51059;42.058;27.986;2024-03-02T04:41:07;77597.66;;;-131.54
32827;BMP280;51059;42.058;27.986;2024-03-02T04:43:33;77593.78;;;-131.54
32827;BMP280;51059;42.058;27.986;2024-03-02T04:46:01;77589.91;;;-131.54
32827;BMP280;51059;42.058;27.986;2024-03-02T04:48:27;77595.72;;;-131.54
32827;BMP280;51059;42.058;27.986;2024-03-02T04:50:53;77597.66;;;-131.54
32827;BMP280;51059;42.058;27.986;2024-03-02T04:53:18;77650.00;;;-131.54
32827;BMP280;51059;42.058;27.986;2024-03-02T04:55:44;77617.03;;;-131.54
32827;BMP280;51059;42.058;27.986;2024-03-02T04:58:19;77603.47;;;-131.54
32827;BMP280;51059;42.058;27.986;2024-03-02T05:00:45;77605.41;;;-131.54
32827;BMP280;51059;42.058;27.986;2024-03-02T05:03:12;77599.59;;;-131.54
32827;BMP280;51059;42.058;27.986;2024-03-02T05:05:39;77595.72;;;-131.54
32827;BMP280;51059;42.058;27.986;2024-03-02T05:08:05;77603.47;;;-131.54
32827;BMP280;51059;42.058;27.986;2024-03-02T05:10:32;77597.66;;;-131.54
32827;BMP280;51059;42.058;27.986;2024-03-02T05:12:58;77586.03;;;-131.54
32827;BMP280;51059;42.058;27.986;2024-03-02T05:15:26;77586.03;;;-131.54
32827;BMP280;51059;42.058;27.986;2024-03-02T05:17:52;77599.59;;;-131.54
32827;BMP280;51059;42.058;27.986;2024-03-02T05:20:19;77593.78;;;-131.54
32827;BMP280;51059;42.058;27.986;2024-03-02T05:22:44;77595.72;;;-131.54
32827;BMP280;51059;42.058;27.986;2024-03-02T05:25:10;77632.56;;;-131.54
32827;BMP280;51059;42.058;27.986;2024-03-02T05:27:36;77609.28;;;-131.54
32827;BMP280;51059;42.058;27.986;2024-03-02T05:30:02;77593.78;;;-131.54
32827;BMP280;51059;42.058;27.986;2024-03-02T05:32:28;77587.97;;;-131.54
32827;BMP280;51059;42.058;27.986;2024-03-02T05:34:54;77595.72;;;-131.54
32827;BMP280;51059;42.058;27.986;2024-03-02T05:37:20;77597.66;;;-131.54
32827;BMP280;51059;42.058;27.986;2024-03-02T05:39:46;77593.78;;;-131.54
32827;BMP280;51059;42.058;27.986;2024-03-02T05:42:12;77597.66;;;-131.54
32827;BMP280;51059;42.058;27.986;2024-03-02T05:44:38;77595.72;;;-131.54
32827;BMP280;51059;42.058;27.986;2024-03-02T05:47:04;77601.53;;;-131.54
32827;BMP280;51059;42.058;27.986;2024-03-02T05:49:30;77595.72;;;-131.54
32827;BMP280;51059;42.058;27.986;2024-03-02T05:51:56;77576.34;;;-131.54
32827;BMP280;51059;42.058;27.986;2024-03-02T05:54:22;77582.16;;;-131.54
32827;BMP280;51059;42.058;27.986;2024-03-02T05:56:48;77582.16;;;-131.54
32827;BMP280;51059;42.058;27.986;2024-03-02T05:59:14;77601.53;;;-131.54
32827;BMP280;51059;42.058;27.986;2024-03-02T06:01:46;77570.53;;;-131.54
32827;BMP280;51059;42.058;27.986;2024-03-02T06:04:12;77560.84;;;-131.54
32827;BMP280;51059;42.058;27.986;2024-03-02T06:06:39;77562.78;;;-131.54
32827;BMP280;51059;42.058;27.986;2024-03-02T06:09:06;77558.91;;;-131.54
32827;BMP280;51059;42.058;27.986;2024-03-02T06:11:35;77558.91;;;-131.54
32827;BMP280;51059;42.058;27.986;2024-03-02T06:16:36;77454.25;;;-131.54
32827;BMP280;51059;42.058;27.986;2024-03-02T06:19:02;77584.09;;;-131.54
32827;BMP280;51059;42.058;27.986;2024-03-02T06:21:28;77599.59;;;-131.54
32827;BMP280;51059;42.058;27.986;2024-03-02T06:23:54;77572.47;;;-131.54
32827;BMP280;51059;42.058;27.986;2024-03-02T06:26:20;77568.59;;;-131.54
32827;BMP280;51059;42.058;27.986;2024-03-02T06:28:46;77562.78;;;-131.54
32827;BMP280;51059;42.058;27.986;2024-03-02T06:31:12;77568.59;;;-131.54
32827;BMP280;51059;42.058;27.986;2024-03-02T06:33:38;77558.91;;;-131.54
32827;BMP280;51059;42.058;27.986;2024-03-02T06:36:04;77558.91;;;-131.54
32827;BMP280;51059;42.058;27.986;2024-03-02T06:38:35;77562.78;;;-131.54
32827;BMP280;51059;42.058;27.986;2024-03-02T06:41:00;77566.66;;;-131.54
32827;BMP280;51059;42.058;27.986;2024-03-02T06:43:26;77564.72;;;-131.54
32827;BMP280;51059;42.058;27.986;2024-03-02T06:45:52;77560.84;;;-131.54
32827;BMP280;51059;42.058;27.986;2024-03-02T06:48:19;77560.84;;;-131.54
32827;BMP280;51059;42.058;27.986;2024-03-02T06:50:49;77611.22;;;-131.54
32827;BMP280;51059;42.058;27.986;2024-03-02T06:53:16;77572.47;;;-131.54
32827;BMP280;51059;42.058;27.986;2024-03-02T06:55:46;77568.59;;;-131.54
32827;BMP280;51059;42.058;27.986;2024-03-02T06:58:13;77570.53;;;-131.54
32827;BMP280;51059;42.058;27.986;2024-03-02T07:00:41;77551.16;;;-131.54
32827;BMP280;51059;42.058;27.986;2024-03-02T07:03:06;77558.91;;;-131.54
32827;BMP280;51059;42.058;27.986;2024-03-02T07:05:32;77556.97;;;-131.54
32827;BMP280;51059;42.058;27.986;2024-03-02T07:07:58;77562.78;;;-131.54
32827;BMP280;51059;42.058;27.986;2024-03-02T07:10:25;77553.09;;;-131.54
32827;BMP280;51059;42.058;27.986;2024-03-02T07:12:51;77562.78;;;-131.54
32827;BMP280;51059;42.058;27.986;2024-03-02T07:15:16;77568.59;;;-131.54
32827;BMP280;51059;42.058;27.986;2024-03-02T07:18:09;77574.41;;;-131.54
32827;BMP280;51059;42.058;27.986;2024-03-02T07:20:35;77558.91;;;-131.54
32827;BMP280;51059;42.058;27.986;2024-03-02T07:23:01;77595.72;;;-131.54
32827;BMP280;51059;42.058;27.986;2024-03-02T07:25:26;77566.66;;;-131.54
32827;BMP280;51059;42.058;27.986;2024-03-02T07:27:53;77547.28;;;-131.54
32827;BMP280;51059;42.058;27.986;2024-03-02T07:30:19;77551.16;;;-131.54
32827;BMP280;51059;42.058;27.986;2024-03-02T07:32:45;77558.91;;;-131.54
32827;BMP280;51059;42.058;27.986;2024-03-02T07:35:15;77543.41;;;-131.54
32827;BMP280;51059;42.058;27.986;2024-03-02T07:37:41;77547.28;;;-131.54
32827;BMP280;51059;42.058;27.986;2024-03-02T07:40:08;77555.03;;;-131.54
32827;BMP280;51059;42.058;27.986;2024-03-02T07:42:38;77555.03;;;-131.54
32827;BMP280;51059;42.058;27.986;2024-03-02T07:45:05;77566.66;;;-131.54
32827;BMP280;51059;42.058;27.986;2024-03-02T07:47:34;77566.66;;;-131.54
32827;BMP280;51059;42.058;27.986;2024-03-02T07:50:00;77568.59;;;-131.54
32827;BMP280;51059;42.058;27.986;2024-03-02T07:52:25;77568.59;;;-131.54
32827;BMP280;51059;42.058;27.986;2024-03-02T07:54:51;77620.94;;;-131.54
32827;BMP280;51059;42.058;27.986;2024-03-02T07:57:17;77582.16;;;-131.54
32827;BMP280;51059;42.058;27.986;2024-03-02T07:59:43;77566.66;;;-131.54
32827;BMP280;51059;42.058;27.986;2024-03-02T08:02:10;77553.09;;;-131.54
32827;BMP280;51059;42.058;27.986;2024-03-02T08:04:36;77553.09;;;-131.54
32827;BMP280;51059;42.058;27.986;2024-03-02T08:07:02;77541.47;;;-131.54
32827;BMP280;51059;42.058;27.986;2024-03-02T08:09:28;77551.16;;;-131.54
32827;BMP280;51059;42.058;27.986;2024-03-02T08:11:54;77539.53;;;-131.54
32827;BMP280;51059;42.058;27.986;2024-03-02T08:14:19;77531.78;;;-131.54
32827;BMP280;51059;42.058;27.986;2024-03-02T08:16:45;77516.25;;;-131.54
32827;BMP280;51059;42.058;27.986;2024-03-02T08:19:11;77525.97;;;-131.54
32827;BMP280;51059;42.058;27.986;2024-03-02T08:21:37;77522.09;;;-131.54
32827;BMP280;51059;42.058;27.986;2024-03-02T08:24:04;77529.84;;;-131.54
32827;BMP280;51059;42.058;27.986;2024-03-02T08:26:30;77549.22;;;-131.54
32827;BMP280;51059;42.058;27.986;2024-03-02T08:28:58;77531.78;;;-131.54
32827;BMP280;51059;42.058;27.986;2024-03-02T08:31:24;77500.75;;;-131.54
32827;BMP280;51059;42.058;27.986;2024-03-02T08:33:50;77496.88;;;-131.54
32827;BMP280;51059;42.058;27.986;2024-03-02T08:36:16;77516.25;;;-131.54
32827;BMP280;51059;42.058;27.986;2024-03-02T08:38:42;77508.50;;;-131.54
32827;BMP280;51059;42.058;27.986;2024-03-02T08:41:10;77516.25;;;-131.54
32827;BMP280;51059;42.058;27.986;2024-03-02T08:43:38;77514.34;;;-131.54
32827;BMP280;51059;42.058;27.986;2024-03-02T08:46:04;77512.38;;;-131.54
32827;BMP280;51059;42.058;27.986;2024-03-02T08:48:30;77520.16;;;-131.54
32827;BMP280;51059;42.058;27.986;2024-03-02T08:50:56;77514.34;;;-131.54
32827;BMP280;51059;42.058;27.986;2024-03-02T08:53:22;77529.84;;;-131.54
32827;BMP280;51059;42.058;27.986;2024-03-02T08:55:48;77527.91;;;-131.54
32827;BMP280;51059;42.058;27.986;2024-03-02T08:58:14;77524.03;;;-131.54
32827;BMP280;51059;42.058;27.986;2024-03-02T09:00:40;77549.22;;;-131.54
32827;BMP280;51059;42.058;27.986;2024-03-02T09:03:07;77527.91;;;-131.54
32827;BMP280;51059;42.058;27.986;2024-03-02T09:05:33;77510.44;;;-131.54
32827;BMP280;51059;42.058;27.986;2024-03-02T09:07:59;77489.13;;;-131.54
32827;BMP280;51059;42.058;27.986;2024-03-02T09:10:25;77469.75;;;-131.54
32827;BMP280;51059;42.058;27.986;2024-03-02T09:12:51;77458.13;;;-131.54
32827;BMP280;51059;42.058;27.986;2024-03-02T09:15:17;77454.25;;;-131.54
32827;BMP280;51059;42.058;27.986;2024-03-02T09:17:43;77446.50;;;-131.54
32827;BMP280;51059;42.058;27.986;2024-03-02T09:20:10;77444.56;;;-131.54
32827;BMP280;51059;42.058;27.986;2024-03-02T09:22:37;77434.88;;;-131.54
32827;BMP280;51059;42.058;27.986;2024-03-02T09:25:03;77415.50;;;-131.54
32827;BMP280;51059;42.058;27.986;2024-03-02T09:27:29;77421.31;;;-131.54
32827;BMP280;51059;42.058;27.986;2024-03-02T09:29:56;77415.50;;;-131.54
32827;BMP280;51059;42.058;27.986;2024-03-02T09:32:22;77467.81;;;-131.54
32827;BMP280;51059;42.058;27.986;2024-03-02T09:34:49;77316.66;;;-131.54
32827;BMP280;51059;42.058;27.986;2024-03-02T09:37:15;77241.06;;;-131.54
32827;BMP280;51059;42.058;27.986;2024-03-02T09:39:43;77320.53;;;-131.54
32827;BMP280;51059;42.058;27.986;2024-03-02T09:42:10;77260.47;;;-131.54
32827;BMP280;51059;42.058;27.986;2024-03-02T09:44:37;77423.25;;;-131.54
32827;BMP280;51059;42.058;27.986;2024-03-02T09:47:02;77434.88;;;-131.54
32827;BMP280;51059;42.058;27.986;2024-03-02T09:49:28;77386.41;;;-131.54
32827;BMP280;51059;42.058;27.986;2024-03-02T09:51:54;77390.28;;;-131.54
32827;BMP280;51059;42.058;27.986;2024-03-02T09:54:21;77380.59;;;-131.54
32827;BMP280;51059;42.058;27.986;2024-03-02T09:56:48;77357.34;;;-131.54
32827;BMP280;51059;42.058;27.986;2024-03-02T09:59:13;77361.22;;;-131.54
32827;BMP280;51059;42.058;27.986;2024-03-02T10:02:02;77365.09;;;-131.54
32827;BMP280;51059;42.058;27.986;2024-03-02T10:04:29;77361.22;;;-131.54
32827;BMP280;51059;42.058;27.986;2024-03-02T10:09:40;77357.34;;;-131.54
32827;BMP280;51059;42.058;27.986;2024-03-02T10:12:08;77349.59;;;-131.54
32827;BMP280;51059;42.058;27.986;2024-03-02T10:14:34;77353.47;;;-131.54
32827;BMP280;51059;42.058;27.986;2024-03-02T10:17:05;77454.25;;;-131.54
32827;BMP280;51059;42.058;27.986;2024-03-02T10:19:32;77417.44;;;-131.54
32827;BMP280;51059;42.058;27.986;2024-03-02T10:22:01;77353.47;;;-131.54
32827;BMP280;51059;42.058;27.986;2024-03-02T10:24:38;77322.47;;;-131.54
32827;BMP280;51059;42.058;27.986;2024-03-02T10:27:08;77312.78;;;-131.54
32827;BMP280;51059;42.058;27.986;2024-03-02T10:29:39;77330.22;;;-131.54
32827;BMP280;51059;42.058;27.986;2024-03-02T10:32:09;77318.59;;;-131.54
32827;BMP280;51059;42.058;27.986;2024-03-02T10:34:35;77314.72;;;-131.54
32827;BMP280;51059;42.058;27.986;2024-03-02T10:37:02;77306.97;;;-131.54
32827;BMP280;51059;42.058;27.986;2024-03-02T10:39:28;77308.91;;;-131.54
32827;BMP280;51059;42.058;27.986;2024-03-02T10:41:56;77306.97;;;-131.54
32827;BMP280;51059;42.058;27.986;2024-03-02T10:44:22;77312.78;;;-131.54
32827;BMP280;51059;42.058;27.986;2024-03-02T10:46:55;77306.97;;;-131.54
32827;BMP280;51059;42.058;27.986;2024-03-02T10:49:23;77399.97;;;-131.54
32827;BMP280;51059;42.058;27.986;2024-03-02T10:51:49;77394.19;;;-131.54
32827;BMP280;51059;42.058;27.986;2024-03-02T10:54:16;77339.91;;;-131.54
32827;BMP280;51059;42.058;27.986;2024-03-02T10:56:44;77334.09;;;-131.54
32827;BMP280;51059;42.058;27.986;2024-03-02T10:59:32;77322.47;;;-131.54
32827;BMP280;51059;42.058;27.986;2024-03-02T11:02:00;77320.53;;;-131.54
32827;BMP280;51059;42.058;27.986;2024-03-02T11:04:28;77326.34;;;-131.54
32827;BMP280;51059;42.058;27.986;2024-03-02T11:07:11;77314.72;;;-131.54
32827;BMP280;51059;42.058;27.986;2024-03-02T11:09:43;77326.34;;;-131.54
32827;BMP280;51059;42.058;27.986;2024-03-02T11:12:48;77320.53;;;-131.54
32827;BMP280;51059;42.058;27.986;2024-03-02T11:15:18;77334.09;;;-131.54
32827;BMP280;51059;42.058;27.986;2024-03-02T11:17:47;77330.22;;;-131.54
32827;BMP280;51059;42.058;27.986;2024-03-02T11:20:14;77401.94;;;-131.54
32827;BMP280;51059;42.058;27.986;2024-03-02T11:22:40;77386.41;;;-131.54
32827;BMP280;51059;42.058;27.986;2024-03-02T11:25:22;77210.06;;;-131.54
32827;BMP280;51059;42.058;27.986;2024-03-02T11:33:04;77351.53;;;-131.54
32827;BMP280;51059;42.058;27.986;2024-03-02T11:35:37;77372.84;;;-131.54
32827;BMP280;51059;42.058;27.986;2024-03-02T11:38:03;77345.72;;;-131.54
32827;BMP280;51059;42.058;27.986;2024-03-02T11:40:30;77306.97;;;-131.54
32827;BMP280;51059;42.058;27.986;2024-03-02T11:42:57;77291.47;;;-131.54
32827;BMP280;51059;42.058;27.986;2024-03-02T11:45:25;77268.22;;;-131.54
32827;BMP280;51059;42.058;27.986;2024-03-02T11:47:53;77260.47;;;-131.54
32827;BMP280;51059;42.058;27.986;2024-03-02T11:50:39;77260.47;;;-131.54
32827;BMP280;51059;42.058;27.986;2024-03-02T11:53:07;77279.84;;;-131.54
32827;BMP280;51059;42.058;27.986;2024-03-02T11:55:38;77250.78;;;-131.54
32827;BMP280;51059;42.058;27.986;2024-03-02T11:58:05;77256.59;;;-131.54
32827;BMP280;51059;42.058;27.986;2024-03-02T12:00:31;77250.78;;;-131.54
32827;BMP280;51059;42.058;27.986;2024-03-02T12:05:30;77368.97;;;-131.54
32827;BMP280;51059;42.058;27.986;2024-03-02T12:08:01;77363.16;;;-131.54
32827;BMP280;51059;42.058;27.986;2024-03-02T12:10:28;77308.91;;;-131.54
32827;BMP280;51059;42.058;27.986;2024-03-02T12:12:59;77277.91;;;-131.54
32827;BMP280;51059;42.058;27.986;2024-03-02T12:15:29;77270.16;;;-131.54
32827;BMP280;51059;42.058;27.986;2024-03-02T12:17:58;77256.59;;;-131.54
32827;BMP280;51059;42.058;27.986;2024-03-02T12:20:26;77243.00;;;-131.54
32827;BMP280;51059;42.058;27.986;2024-03-02T12:22:54;77229.44;;;-131.54
32827;BMP280;51059;42.058;27.986;2024-03-02T12:25:23;77225.56;;;-131.54
32827;BMP280;51059;42.058;27.986;2024-03-02T12:27:53;77200.38;;;-131.54
32827;BMP280;51059;42.058;27.986;2024-03-02T12:30:20;77198.44;;;-131.54
32827;BMP280;51059;42.058;27.986;2024-03-02T12:32:47;77175.19;;;-131.54
32827;BMP280;51059;42.058;27.986;2024-03-02T12:35:13;77177.13;;;-131.54
32827;BMP280;51059;42.058;27.986;2024-03-02T12:40:11;77225.56;;;-131.54
32827;BMP280;51059;42.058;27.986;2024-03-02T12:42:39;77082.19;;;-131.54
32827;BMP280;51059;42.058;27.986;2024-03-02T12:45:08;77045.34;;;-131.54
32827;BMP280;51059;42.058;27.986;2024-03-02T12:47:35;77086.06;;;-131.54
32827;BMP280;51059;42.058;27.986;2024-03-02T12:50:03;77243.00;;;-131.54
32827;BMP280;51059;42.058;27.986;2024-03-02T12:52:29;77264.34;;;-131.54
32827;BMP280;51059;42.058;27.986;2024-03-02T12:54:55;77239.13;;;-131.54
32827;BMP280;51059;42.058;27.986;2024-03-02T12:57:29;77194.56;;;-131.54
32827;BMP280;51059;42.058;27.986;2024-03-02T13:00:04;77190.69;;;-131.54
32827;BMP280;51059;42.058;27.986;2024-03-02T13:02:40;77194.56;;;-131.54
32827;BMP280;51059;42.058;27.986;2024-03-02T13:05:07;77200.38;;;-131.54
32827;BMP280;51059;42.058;27.986;2024-03-02T13:07:41;77237.19;;;-131.54
32827;BMP280;51059;42.058;27.986;2024-03-02T13:10:08;77235.25;;;-131.54
32827;BMP280;51059;42.058;27.986;2024-03-02T13:12:35;77241.06;;;-131.54
32827;BMP280;51059;42.058;27.986;2024-03-02T13:15:03;77264.34;;;-131.54
32827;BMP280;51059;42.058;27.986;2024-03-02T13:17:29;77277.91;;;-131.54
32827;BMP280;51059;42.058;27.986;2024-03-02T13:19:57;77291.47;;;-131.54
32827;BMP280;51059;42.058;27.986;2024-03-02T13:22:27;77390.28;;;-131.54
32827;BMP280;51059;42.058;27.986;2024-03-02T13:24:53;77417.44;;;-131.54
32827;BMP280;51059;42.058;27.986;2024-03-02T13:27:20;77392.22;;;-131.54
32827;BMP280;51059;42.058;27.986;2024-03-02T13:29:46;77382.53;;;-131.54
32827;BMP280;51059;42.058;27.986;2024-03-02T13:32:16;77378.66;;;-131.54
32827;BMP280;51059;42.058;27.986;2024-03-02T13:34:42;77359.28;;;-131.54
32827;BMP280;51059;42.058;27.986;2024-03-02T13:37:08;77380.59;;;-131.54
32827;BMP280;51059;42.058;27.986;2024-03-02T13:39:35;77374.78;;;-131.54
32827;BMP280;51059;42.058;27.986;2024-03-02T13:42:12;77376.72;;;-131.54
32827;BMP280;51059;42.058;27.986;2024-03-02T13:44:43;77376.72;;;-131.54
32827;BMP280;51059;42.058;27.986;2024-03-02T13:47:12;77380.59;;;-131.54
32827;BMP280;51059;42.058;27.986;2024-03-02T13:49:38;77407.75;;;-131.54
32827;BMP280;51059;42.058;27.986;2024-03-02T13:52:09;77405.81;;;-131.54
32827;BMP280;51059;42.058;27.986;2024-03-02T13:54:45;77496.88;;;-131.54
32827;BMP280;51059;42.058;27.986;2024-03-02T13:57:11;77458.13;;;-131.54